createdAt,value
2019-06-07T00:01:37.499Z,42.33
2019-06-07T00:05:38.389Z,45.20
2019-06-07T00:09:39.354Z,43.20
2019-06-07T00:13:40.245Z,42.30
2019-06-07T00:17:41.261Z,43.03
2019-06-07T00:22:13.506Z,42.23
2019-06-07T00:25:45.105Z,42.73
2019-06-07T00:29:46.121Z,44.50
2019-06-07T00:33:47.170Z,39.43
2019-06-07T00:37:48.024Z,39.73
2019-06-07T00:41:48.915Z,38.33
2019-06-07T00:45:49.788Z,37.80
2019-06-07T00:49:50.753Z,38.13
2019-06-07T00:53:51.827Z,37.77
2019-06-07T00:57:52.987Z,41.57
2019-06-07T01:01:53.843Z,38.80
2019-06-07T01:05:54.693Z,40.03
2019-06-07T01:09:55.703Z,39.77
2019-06-07T01:13:56.548Z,43.17
2019-06-07T01:18:33.750Z,42.97
2019-06-07T01:22:00.290Z,42.53
2019-06-07T01:26:01.148Z,39.30
2019-06-07T01:30:10.634Z,41.70
2019-06-07T01:34:11.514Z,42.63
2019-06-07T01:38:12.398Z,44.97
2019-06-07T01:42:13.282Z,46.30
2019-06-07T01:46:14.139Z,44.80
2019-06-07T01:50:17.272Z,43.07
2019-06-07T01:54:52.138Z,40.33
2019-06-07T01:58:26.117Z,44.13
2019-06-07T02:02:28.252Z,40.57
2019-06-07T02:06:32.048Z,34.60
2019-06-07T02:10:33.628Z,37.97
2019-06-07T02:14:34.376Z,37.43
2019-06-07T02:18:35.347Z,36.03
2019-06-07T02:22:36.238Z,39.20
2019-06-07T02:26:37.217Z,40.47
2019-06-07T02:30:47.178Z,44.77
2019-06-07T02:34:40.869Z,50.47
2019-06-07T02:38:41.844Z,60.07
2019-06-07T02:42:43.070Z,48.63
2019-06-07T02:46:48.716Z,89.57
2019-06-07T02:50:47.776Z,58.27
2019-06-07T02:54:48.664Z,44.27
2019-06-07T02:58:49.719Z,37.33
2019-06-07T03:02:50.724Z,53.53
2019-06-07T03:06:52.495Z,46.53
2019-06-07T03:10:53.894Z,64.70
2019-06-07T03:14:55.048Z,52.00
2019-06-07T03:19:02.123Z,70.90
2019-06-07T03:23:03.511Z,51.43
2019-06-07T03:27:34.325Z,54.27
2019-06-07T03:31:07.384Z,64.03
2019-06-07T03:35:08.447Z,56.03
2019-06-07T03:39:09.403Z,50.87
2019-06-07T03:43:10.278Z,56.40
2019-06-07T03:47:11.163Z,53.70
2019-06-07T03:51:24.898Z,60.83
2019-06-07T03:55:14.989Z,67.30
2019-06-07T03:59:15.868Z,44.03
2019-06-07T04:03:32.815Z,48.17
2019-06-07T04:07:19.514Z,45.87
2019-06-07T04:11:20.518Z,40.93
2019-06-07T04:15:21.352Z,45.57
2019-06-07T04:19:22.229Z,39.87
2019-06-07T04:23:29.903Z,41.70
2019-06-07T04:27:26.078Z,40.77
2019-06-07T04:31:28.264Z,44.53
2019-06-07T04:35:31.377Z,41.53
2019-06-07T04:39:37.785Z,45.60
2019-06-07T04:43:40.929Z,42.57
2019-06-07T04:47:42.387Z,32.27
2019-06-07T04:51:44.499Z,34.60
2019-06-07T04:55:45.353Z,31.57
2019-06-07T05:00:22.282Z,29.60
2019-06-07T05:03:49.243Z,25.93
2019-06-07T05:07:50.221Z,28.07
2019-06-07T05:11:51.098Z,30.83
2019-06-07T05:15:51.963Z,33.10
2019-06-07T05:19:52.833Z,30.90
2019-06-07T05:24:06.463Z,31.17
2019-06-07T05:27:56.511Z,27.50
2019-06-07T05:31:57.656Z,27.37
2019-06-07T05:35:58.543Z,24.67
2019-06-07T05:39:59.455Z,23.00
2019-06-07T05:44:12.180Z,25.50
2019-06-07T05:48:04.632Z,21.10
2019-06-07T05:52:05.751Z,19.97
2019-06-07T05:56:06.796Z,21.60
2019-06-07T06:00:07.955Z,20.30
2019-06-07T06:04:08.843Z,18.87
2019-06-07T06:08:09.803Z,18.57
2019-06-07T06:12:10.850Z,17.93
2019-06-07T06:16:11.926Z,17.27
2019-06-07T06:20:14.179Z,13.27
2019-06-07T06:24:15.037Z,13.87
2019-06-07T06:28:16.363Z,11.43
2019-06-07T06:36:21.022Z,9.13
2019-06-07T06:40:23.742Z,8.17
2019-06-07T06:44:24.598Z,9.40
2019-06-07T06:48:25.465Z,10.17
2019-06-07T06:52:26.316Z,10.00
2019-06-07T06:56:27.188Z,8.57
2019-06-07T07:00:56.886Z,9.03
2019-06-07T07:04:53.435Z,8.90
2019-06-07T07:08:53.425Z,9.27
2019-06-07T07:12:54.606Z,9.33
2019-06-07T07:16:56.641Z,9.00
2019-06-07T07:20:57.856Z,9.37
2019-06-07T07:24:58.923Z,9.03
2019-06-07T07:28:59.806Z,11.23
2019-06-07T07:33:00.697Z,9.00
2019-06-07T07:37:01.713Z,10.57
2019-06-07T07:41:14.635Z,9.97
2019-06-07T07:45:06.026Z,8.60
2019-06-07T07:49:06.901Z,10.80
2019-06-07T07:53:08.014Z,9.53
2019-06-07T07:57:09.005Z,11.43
2019-06-07T08:01:11.232Z,9.63
2019-06-07T08:05:23.484Z,11.13
2019-06-07T08:09:15.502Z,12.57
2019-06-07T08:13:25.996Z,11.00
2019-06-07T08:17:19.194Z,10.27
2019-06-07T08:21:25.990Z,10.40
2019-06-07T08:25:23.134Z,10.40
2019-06-07T08:29:24.027Z,9.57
2019-06-07T08:33:26.711Z,9.23
2019-06-07T08:38:13.229Z,9.37
2019-06-07T08:41:30.624Z,8.83
2019-06-07T08:45:31.714Z,10.00
2019-06-07T08:49:32.790Z,9.60
2019-06-07T08:53:33.686Z,8.17
2019-06-07T08:57:34.749Z,9.43
2019-06-07T09:01:35.662Z,8.80
2019-06-07T09:05:36.651Z,7.70
2019-06-07T09:09:37.568Z,6.60
2019-06-07T09:13:38.467Z,7.67
2019-06-07T09:18:29.693Z,8.57
2019-06-07T09:21:42.402Z,7.13
2019-06-07T09:25:56.716Z,8.27
2019-06-07T09:29:46.387Z,7.80
2019-06-07T09:33:47.411Z,8.17
2019-06-07T09:38:07.890Z,7.37
2019-06-07T09:41:51.304Z,7.20
2019-06-07T09:45:52.201Z,6.17
2019-06-07T09:49:53.145Z,7.70
2019-06-07T09:53:54.130Z,6.60
2019-06-07T09:57:56.509Z,5.70
2019-06-07T10:01:59.515Z,5.13
2019-06-07T10:06:07.604Z,6.50
2019-06-07T10:14:06.867Z,6.47
2019-06-07T10:18:09.238Z,4.83
2019-06-07T10:22:10.356Z,6.50
2019-06-07T10:26:11.311Z,5.73
2019-06-07T10:30:12.771Z,5.60
2019-06-07T10:34:13.663Z,5.37
2019-06-07T10:38:15.086Z,5.73
2019-06-07T10:42:16.043Z,7.17
2019-06-07T10:46:16.930Z,5.70
2019-06-07T10:50:18.245Z,5.90
2019-06-07T10:54:27.854Z,5.73
2019-06-07T10:58:21.978Z,5.87
2019-06-07T11:02:22.881Z,5.03
2019-06-07T11:06:23.753Z,6.77
2019-06-07T11:10:24.899Z,7.30
2019-06-07T11:14:25.809Z,7.07
2019-06-07T11:18:26.779Z,6.53
2019-06-07T11:22:27.793Z,7.33
2019-06-07T11:26:28.654Z,5.87
2019-06-07T11:30:29.649Z,7.33
2019-06-07T11:34:30.562Z,8.57
2019-06-07T11:38:31.625Z,7.27
2019-06-07T11:42:32.582Z,7.37
2019-06-07T11:46:33.570Z,8.30
2019-06-07T11:50:34.435Z,6.07
2019-06-07T11:54:35.547Z,6.87
2019-06-07T11:58:36.556Z,7.23
2019-06-07T12:02:37.400Z,7.90
2019-06-07T12:06:38.734Z,5.53
2019-06-07T12:10:42.454Z,6.53
2019-06-07T12:14:42.537Z,7.33
2019-06-07T12:18:43.429Z,7.10
2019-06-07T12:22:44.321Z,5.53
2019-06-07T12:26:45.210Z,6.40
2019-06-07T12:30:46.119Z,6.70
2019-06-07T12:34:47.018Z,7.50
2019-06-07T12:38:47.890Z,6.33
2019-06-07T12:42:48.888Z,6.67
2019-06-07T12:46:49.876Z,7.87
2019-06-07T12:50:50.856Z,7.23
2019-06-07T12:54:51.719Z,6.00
2019-06-07T12:58:52.612Z,6.93
2019-06-07T13:02:53.731Z,8.63
2019-06-07T13:06:54.701Z,7.33
2019-06-07T13:10:55.638Z,6.93
2019-06-07T13:14:56.638Z,6.47
2019-06-07T13:18:57.824Z,6.60
2019-06-07T13:22:58.910Z,6.40
2019-06-07T13:26:59.948Z,7.20
2019-06-07T13:31:00.826Z,6.10
2019-06-07T13:35:03.502Z,5.87
2019-06-07T13:39:05.709Z,6.07
2019-06-07T13:43:06.604Z,6.83
2019-06-07T13:47:07.579Z,7.17
2019-06-07T13:51:08.474Z,6.40
2019-06-07T13:55:11.039Z,5.40
2019-06-07T13:59:11.921Z,5.53
2019-06-07T14:03:12.933Z,5.57
2019-06-07T14:07:13.889Z,6.47
2019-06-07T14:11:14.896Z,6.00
2019-06-07T14:15:15.937Z,6.43
2019-06-07T14:19:16.812Z,6.63
2019-06-07T14:23:17.812Z,5.40
2019-06-07T14:27:18.757Z,6.33
2019-06-07T14:31:19.763Z,5.93
2019-06-07T14:35:20.934Z,5.10
2019-06-07T14:39:23.046Z,5.10
2019-06-07T14:43:24.924Z,9.60
2019-06-07T14:47:26.124Z,5.53
2019-06-07T14:51:28.266Z,4.70
2019-06-07T14:55:29.308Z,5.27
2019-06-07T14:59:30.462Z,5.87
2019-06-07T15:03:32.699Z,5.97
2019-06-07T15:07:34.867Z,5.43
2019-06-07T15:11:35.849Z,4.83
2019-06-07T15:15:36.736Z,5.77
2019-06-07T15:19:39.056Z,5.80
2019-06-07T15:23:40.181Z,5.90
2019-06-07T15:27:41.047Z,6.47
2019-06-07T15:31:42.023Z,6.60
2019-06-07T15:35:42.997Z,7.10
2019-06-07T15:39:43.843Z,6.80
2019-06-07T15:43:44.854Z,5.33
2019-06-07T15:47:45.728Z,6.70
2019-06-07T15:51:46.621Z,6.07
2019-06-07T15:55:50.615Z,5.93
2019-06-07T15:59:52.352Z,6.47
2019-06-07T16:03:56.420Z,6.67
2019-06-07T16:08:01.097Z,10.63
2019-06-07T16:12:05.564Z,6.83
2019-06-07T16:16:10.180Z,7.30
2019-06-07T16:20:11.901Z,7.13
2019-06-07T16:24:12.808Z,7.63
2019-06-07T16:28:13.705Z,8.87
2019-06-07T16:32:14.714Z,8.47
2019-06-07T16:36:15.650Z,8.40
2019-06-07T16:40:16.928Z,7.50
2019-06-07T16:44:17.867Z,9.40
2019-06-07T16:48:18.968Z,8.43
2019-06-07T16:52:20.026Z,9.03
2019-06-07T16:56:20.921Z,8.60
2019-06-07T17:00:22.431Z,7.70
2019-06-07T17:04:23.546Z,8.53
2019-06-07T17:08:24.892Z,7.73
2019-06-07T17:12:25.776Z,8.50
2019-06-07T17:16:26.641Z,9.43
2019-06-07T17:20:27.530Z,9.10
2019-06-07T17:24:49.684Z,9.57
2019-06-07T17:28:50.927Z,17.30
2019-06-07T17:32:59.035Z,11.50
2019-06-07T17:36:54.536Z,18.97
2019-06-07T17:40:55.476Z,6.30
2019-06-07T17:44:56.463Z,3.80
2019-06-07T17:48:57.441Z,5.27
2019-06-07T17:52:58.437Z,1.70
2019-06-07T17:56:59.554Z,2.93
2019-06-07T18:01:00.612Z,2.57
2019-06-07T18:05:02.628Z,1.93
2019-06-07T18:09:06.227Z,7.43
2019-06-07T18:13:07.438Z,4.37
2019-06-07T18:17:08.407Z,3.07
2019-06-07T18:21:09.302Z,4.80
2019-06-07T18:25:10.268Z,4.17
2019-06-07T18:29:11.170Z,22.23
2019-06-07T18:33:12.204Z,4.93
2019-06-07T18:37:13.169Z,2.77
2019-06-07T18:41:14.339Z,3.93
2019-06-07T18:45:15.442Z,3.97
2019-06-07T18:49:16.366Z,5.37
2019-06-07T18:53:17.442Z,2.57
2019-06-07T18:57:22.058Z,3.43
2019-06-07T19:01:23.983Z,31.60
2019-06-07T19:05:25.502Z,2.10
2019-06-07T19:09:26.390Z,1.70
2019-06-07T19:13:27.411Z,4.30
2019-06-07T19:17:28.435Z,2.10
2019-06-07T19:21:32.274Z,3.00
2019-06-07T19:25:32.382Z,3.23
2019-06-07T19:29:33.280Z,1.30
2019-06-07T19:33:48.414Z,1.47
2019-06-07T19:37:37.258Z,2.43
2019-06-07T19:41:38.369Z,3.77
2019-06-07T19:45:39.436Z,3.50
2019-06-07T19:49:40.510Z,1.73
2019-06-07T19:53:42.802Z,1.47
2019-06-07T19:57:45.735Z,1.00
2019-06-07T20:01:47.220Z,1.80
2019-06-07T20:05:48.125Z,2.97
2019-06-07T20:09:49.195Z,1.23
2019-06-07T20:13:50.359Z,2.20
2019-06-07T20:17:51.455Z,1.40
2019-06-07T20:21:58.780Z,0.70
2019-06-07T20:26:00.096Z,2.27
2019-06-07T20:30:02.459Z,1.40
2019-06-07T20:34:04.248Z,1.23
2019-06-07T20:38:06.468Z,1.90
2019-06-07T20:42:07.828Z,1.47
2019-06-07T20:46:08.937Z,2.40
2019-06-07T20:50:10.246Z,5.13
2019-06-07T20:54:11.129Z,0.83
2019-06-07T20:58:12.011Z,1.00
2019-06-07T21:02:13.414Z,3.37
2019-06-07T21:06:14.529Z,1.10
2019-06-07T21:10:15.514Z,1.43
2019-06-07T21:14:16.398Z,1.47
2019-06-07T21:18:19.867Z,5.77
2019-06-07T21:22:20.143Z,1.73
2019-06-07T21:26:21.135Z,1.23
2019-06-07T21:30:22.085Z,0.87
2019-06-07T21:34:23.029Z,1.27
2019-06-07T21:38:24.623Z,1.53
2019-06-07T21:42:25.750Z,3.03
2019-06-07T21:46:26.608Z,1.60
2019-06-07T21:50:27.620Z,1.87
2019-06-07T21:54:28.626Z,2.03
2019-06-07T21:58:29.643Z,1.00
2019-06-07T22:02:31.241Z,1.37
2019-06-07T22:06:32.389Z,2.13
2019-06-07T22:10:33.453Z,1.70
2019-06-07T22:14:34.454Z,1.60
2019-06-07T22:18:35.598Z,2.27
2019-06-07T22:22:36.714Z,1.33
2019-06-07T22:26:37.703Z,2.97
2019-06-07T22:30:38.589Z,1.30
2019-06-07T22:34:39.723Z,3.30
2019-06-07T22:38:40.722Z,3.47
2019-06-07T22:42:41.664Z,2.10
2019-06-07T22:46:42.589Z,1.67
2019-06-07T22:50:43.589Z,1.27
2019-06-07T22:54:44.508Z,1.20
2019-06-07T22:58:45.816Z,4.03
2019-06-07T23:02:46.909Z,2.33
2019-06-07T23:06:47.793Z,1.53
2019-06-07T23:10:48.717Z,1.50
2019-06-07T23:14:49.608Z,2.83
2019-06-07T23:18:50.503Z,3.17
2019-06-07T23:22:51.404Z,3.00
2019-06-07T23:26:52.348Z,3.03
2019-06-07T23:30:53.250Z,2.43
2019-06-07T23:34:54.251Z,1.60
2019-06-07T23:38:55.267Z,3.93
2019-06-07T23:42:56.290Z,3.00
2019-06-07T23:47:10.355Z,6.50
2019-06-07T23:51:00.549Z,3.33
2019-06-07T23:55:02.907Z,1.70
2019-06-07T23:59:03.901Z,1.50
